createdAt,value
2019-04-07T00:02:01.741Z,14.27
2019-04-07T00:04:31.774Z,13.83
2019-04-07T00:07:02.307Z,11.47
2019-04-07T00:09:33.122Z,13.47
2019-04-07T00:12:04.365Z,16.33
2019-04-07T00:14:36.025Z,14.00
2019-04-07T00:17:06.460Z,12.77
2019-04-07T00:19:37.724Z,14.40
2019-04-07T00:22:07.890Z,12.50
2019-04-07T00:24:39.315Z,10.57
2019-04-07T00:27:10.171Z,13.00
2019-04-07T00:29:40.980Z,12.23
2019-04-07T00:32:11.416Z,18.20
2019-04-07T00:34:41.472Z,14.40
2019-04-07T00:37:11.993Z,15.40
2019-04-07T00:39:42.328Z,17.10
2019-04-07T00:42:12.761Z,14.70
2019-04-07T00:44:42.516Z,15.53
2019-04-07T00:47:15.287Z,15.43
2019-04-07T00:49:46.713Z,13.73
2019-04-07T00:52:20.569Z,13.50
2019-04-07T00:54:51.332Z,11.70
2019-04-07T00:57:21.893Z,12.83
2019-04-07T00:59:52.335Z,12.67
2019-04-07T01:02:22.338Z,16.07
2019-04-07T01:04:52.064Z,12.97
2019-04-07T01:07:22.448Z,13.87
2019-04-07T01:09:52.333Z,13.03
2019-04-07T01:12:23.828Z,16.00
2019-04-07T01:14:55.383Z,14.80
2019-04-07T01:17:24.821Z,13.90
2019-04-07T01:19:56.120Z,12.87
2019-04-07T01:22:26.574Z,15.33
2019-04-07T01:24:56.262Z,12.07
2019-04-07T01:27:27.847Z,13.30
2019-04-07T01:29:58.253Z,16.07
2019-04-07T01:32:28.046Z,12.73
2019-04-07T01:34:58.126Z,16.77
2019-04-07T01:37:29.050Z,14.10
2019-04-07T01:39:59.291Z,15.20
2019-04-07T01:42:54.296Z,12.53
2019-04-07T01:45:47.368Z,13.17
2019-04-07T01:48:34.867Z,16.73
2019-04-07T01:51:16.745Z,12.00
2019-04-07T01:54:21.749Z,13.90
2019-04-07T01:57:13.697Z,13.60
2019-04-07T01:59:54.096Z,17.30
2019-04-07T02:02:45.576Z,14.73
2019-04-07T02:05:40.779Z,14.00
2019-04-07T02:08:38.627Z,15.73
2019-04-07T02:11:43.989Z,13.13
2019-04-07T02:14:32.584Z,15.60
2019-04-07T02:17:27.290Z,13.50
2019-04-07T02:20:19.005Z,12.50
2019-04-07T02:23:14.655Z,15.63
2019-04-07T02:26:07.100Z,15.20
2019-04-07T02:29:01.735Z,16.23
2019-04-07T02:32:06.199Z,16.00
2019-04-07T02:34:42.886Z,14.00
2019-04-07T02:37:27.899Z,17.00
2019-04-07T02:40:16.363Z,15.90
2019-04-07T02:43:15.872Z,14.03
2019-04-07T02:45:59.830Z,16.73
2019-04-07T02:48:38.066Z,19.60
2019-04-07T02:51:27.426Z,16.83
2019-04-07T02:54:09.444Z,15.00
2019-04-07T02:57:10.309Z,17.00
2019-04-07T02:59:51.990Z,16.40
2019-04-07T03:02:34.913Z,15.90
2019-04-07T03:05:15.860Z,13.97
2019-04-07T03:08:04.725Z,15.37
2019-04-07T03:11:03.824Z,17.97
2019-04-07T03:13:54.289Z,17.17
2019-04-07T03:16:43.749Z,17.07
2019-04-07T03:19:22.213Z,14.80
2019-04-07T03:22:08.861Z,15.53
2019-04-07T03:24:59.993Z,17.00
2019-04-07T03:27:48.732Z,17.40
2019-04-07T03:30:37.543Z,17.97
2019-04-07T03:33:22.123Z,20.60
2019-04-07T03:36:00.768Z,15.90
2019-04-07T03:38:39.303Z,14.60
2019-04-07T03:41:31.579Z,15.93
2019-04-07T03:44:18.622Z,16.90
2019-04-07T03:47:14.346Z,16.60
2019-04-07T03:49:49.697Z,16.47
2019-04-07T03:52:32.136Z,17.50
2019-04-07T03:55:21.905Z,16.13
2019-04-07T03:58:01.839Z,15.40
2019-04-07T04:01:30.176Z,12.57
2019-04-07T04:04:25.469Z,15.30
2019-04-07T04:07:20.636Z,18.73
2019-04-07T04:09:58.109Z,13.60
2019-04-07T04:12:36.167Z,18.97
2019-04-07T04:15:10.817Z,18.40
2019-04-07T04:17:42.910Z,13.97
2019-04-07T04:20:14.699Z,15.00
2019-04-07T04:22:44.556Z,17.13
2019-04-07T04:25:14.947Z,17.33
2019-04-07T04:27:44.745Z,16.30
2019-04-07T04:30:16.902Z,15.13
2019-04-07T04:32:48.433Z,16.67
2019-04-07T04:35:19.056Z,15.50
2019-04-07T04:37:52.347Z,16.23
2019-04-07T04:40:22.249Z,15.47
2019-04-07T04:42:52.609Z,14.63
2019-04-07T04:45:23.138Z,17.10
2019-04-07T04:47:56.088Z,19.83
2019-04-07T04:50:28.133Z,18.47
2019-04-07T04:52:59.989Z,19.53
2019-04-07T04:55:30.650Z,16.87
2019-04-07T04:58:02.531Z,16.43
2019-04-07T05:00:32.387Z,18.33
2019-04-07T05:03:02.748Z,17.07
2019-04-07T05:05:33.128Z,17.23
2019-04-07T05:08:04.475Z,16.30
2019-04-07T05:10:34.789Z,15.83
2019-04-07T05:13:05.313Z,16.03
2019-04-07T05:15:35.540Z,16.17
2019-04-07T05:18:05.446Z,16.20
2019-04-07T05:20:35.700Z,22.00
2019-04-07T05:23:05.640Z,16.80
2019-04-07T05:25:36.191Z,16.57
2019-04-07T05:28:05.857Z,19.93
2019-04-07T05:30:36.543Z,16.27
2019-04-07T05:33:06.641Z,19.43
2019-04-07T05:35:36.381Z,16.03
2019-04-07T05:38:08.306Z,18.23
2019-04-07T05:40:38.202Z,19.37
2019-04-07T05:43:08.076Z,20.07
2019-04-07T05:45:38.786Z,16.77
2019-04-07T05:48:10.742Z,21.93
2019-04-07T05:50:41.971Z,18.60
2019-04-07T05:53:14.623Z,16.97
2019-04-07T05:55:44.861Z,17.03
2019-04-07T05:58:15.879Z,16.93
2019-04-07T06:00:46.864Z,17.83
2019-04-07T06:03:17.679Z,25.80
2019-04-07T06:05:50.871Z,18.33
2019-04-07T06:08:28.000Z,18.33
2019-04-07T06:10:54.201Z,16.70
2019-04-07T06:13:25.137Z,19.67
2019-04-07T06:15:55.123Z,19.03
2019-04-07T06:18:31.945Z,18.40
2019-04-07T06:21:01.177Z,19.53
2019-04-07T06:23:33.591Z,20.47
2019-04-07T06:26:06.493Z,19.40
2019-04-07T06:28:34.857Z,20.13
2019-04-07T06:31:06.595Z,16.53
2019-04-07T06:33:40.364Z,23.87
2019-04-07T06:36:10.409Z,18.77
2019-04-07T06:38:43.636Z,18.63
2019-04-07T06:41:12.655Z,20.10
2019-04-07T06:43:42.749Z,18.13
2019-04-07T06:46:28.673Z,18.13
2019-04-07T06:49:18.424Z,17.13
2019-04-07T06:52:17.143Z,18.07
2019-04-07T06:55:15.586Z,19.23
2019-04-07T06:58:12.765Z,21.17
2019-04-07T07:01:07.208Z,18.80
2019-04-07T07:03:55.194Z,19.23
2019-04-07T07:06:52.534Z,18.33
2019-04-07T07:09:47.114Z,15.27
2019-04-07T07:12:38.820Z,17.90
2019-04-07T07:15:43.857Z,19.37
2019-04-07T07:18:34.927Z,17.93
2019-04-07T07:21:27.481Z,16.90
2019-04-07T07:23:58.124Z,17.87
2019-04-07T07:26:32.944Z,15.47
2019-04-07T07:29:01.019Z,13.57
2019-04-07T07:31:30.997Z,14.43
2019-04-07T07:34:01.188Z,15.53
2019-04-07T07:36:31.770Z,18.33
2019-04-07T07:39:05.244Z,14.10
2019-04-07T07:41:37.745Z,13.63
2019-04-07T07:44:09.607Z,14.13
2019-04-07T07:46:40.655Z,12.23
2019-04-07T07:49:10.556Z,14.23
2019-04-07T07:51:45.105Z,15.83
2019-04-07T07:54:14.933Z,13.70
2019-04-07T07:56:48.540Z,15.03
2019-04-07T07:59:17.825Z,17.53
2019-04-07T08:01:50.318Z,14.50
2019-04-07T08:04:19.113Z,14.97
2019-04-07T08:06:51.290Z,13.70
2019-04-07T08:09:24.817Z,12.60
2019-04-07T08:11:54.397Z,13.77
2019-04-07T08:14:24.248Z,14.87
2019-04-07T08:17:02.254Z,14.97
2019-04-07T08:19:31.863Z,14.87
2019-04-07T08:22:03.108Z,14.50
2019-04-07T08:24:32.996Z,17.13
2019-04-07T08:27:02.724Z,15.17
2019-04-07T08:29:33.439Z,16.67
2019-04-07T08:32:05.350Z,15.13
2019-04-07T08:34:36.169Z,14.00
2019-04-07T08:37:06.220Z,16.53
2019-04-07T08:39:37.496Z,13.57
2019-04-07T08:42:10.139Z,15.93
2019-04-07T08:44:40.766Z,14.27
2019-04-07T08:47:16.455Z,12.03
2019-04-07T08:49:45.012Z,11.67
2019-04-07T08:52:15.285Z,13.57
2019-04-07T08:54:48.868Z,12.40
2019-04-07T08:57:17.485Z,11.37
2019-04-07T08:59:48.116Z,13.10
2019-04-07T09:02:19.234Z,12.00
2019-04-07T09:04:51.230Z,14.10
2019-04-07T09:07:23.394Z,10.93
2019-04-07T09:09:53.559Z,13.50
2019-04-07T09:12:27.474Z,10.67
2019-04-07T09:14:55.680Z,12.07
2019-04-07T09:17:41.120Z,11.37
2019-04-07T09:20:24.330Z,11.27
2019-04-07T09:23:18.999Z,11.33
2019-04-07T09:26:09.495Z,9.03
2019-04-07T09:28:53.407Z,10.30
2019-04-07T09:31:31.465Z,10.67
2019-04-07T09:34:21.180Z,9.50
2019-04-07T09:37:18.619Z,7.63
2019-04-07T09:40:08.021Z,9.80
2019-04-07T09:43:03.137Z,6.57
2019-04-07T09:46:04.967Z,6.93
2019-04-07T09:48:57.551Z,6.83
2019-04-07T09:51:49.550Z,6.77
2019-04-07T09:54:41.669Z,8.70
2019-04-07T09:57:36.063Z,7.03
2019-04-07T10:00:23.947Z,8.63
2019-04-07T10:03:00.249Z,7.57
2019-04-07T10:05:48.609Z,9.00
2019-04-07T10:08:49.851Z,7.80
2019-04-07T10:11:41.905Z,8.03
2019-04-07T10:14:30.659Z,7.27
2019-04-07T10:17:26.178Z,7.67
2019-04-07T10:20:25.976Z,7.20
2019-04-07T10:23:16.648Z,6.17
2019-04-07T10:26:04.105Z,7.70
2019-04-07T10:28:43.050Z,9.77
2019-04-07T10:31:35.029Z,7.97
2019-04-07T10:34:23.664Z,14.33
2019-04-07T10:37:18.846Z,8.27
2019-04-07T10:40:18.879Z,6.33
2019-04-07T10:42:57.388Z,5.67
2019-04-07T10:45:50.489Z,8.73
2019-04-07T10:48:38.263Z,6.23
2019-04-07T10:51:39.728Z,7.60
2019-04-07T10:54:16.097Z,6.87
2019-04-07T10:57:11.108Z,5.00
2019-04-07T11:00:04.699Z,6.57
2019-04-07T11:03:12.119Z,5.20
2019-04-07T11:06:19.202Z,6.70
2019-04-07T11:09:16.669Z,4.23
2019-04-07T11:12:11.178Z,5.47
2019-04-07T11:15:00.078Z,5.37
2019-04-07T11:17:50.315Z,4.17
2019-04-07T11:20:34.380Z,5.17
2019-04-07T11:23:26.934Z,3.90
2019-04-07T11:26:21.915Z,3.53
2019-04-07T11:29:05.313Z,4.70
2019-04-07T11:31:50.427Z,5.97
2019-04-07T11:34:39.066Z,6.90
2019-04-07T11:37:31.228Z,6.33
2019-04-07T11:40:22.694Z,4.33
2019-04-07T11:43:07.068Z,4.83
2019-04-07T11:45:56.473Z,2.53
2019-04-07T11:48:30.916Z,5.10
2019-04-07T11:51:26.022Z,3.83
2019-04-07T11:54:10.923Z,2.53
2019-04-07T11:56:50.053Z,7.30
2019-04-07T11:59:54.010Z,5.90
2019-04-07T12:02:44.186Z,6.50
2019-04-07T12:05:26.798Z,2.87
2019-04-07T12:08:14.905Z,2.90
2019-04-07T12:11:14.579Z,3.30
2019-04-07T12:14:09.017Z,2.20
2019-04-07T12:17:02.364Z,3.37
2019-04-07T12:19:54.912Z,3.07
2019-04-07T12:22:31.676Z,2.17
2019-04-07T12:25:15.715Z,2.60
2019-04-07T12:28:03.877Z,4.33
2019-04-07T12:30:43.751Z,3.40
2019-04-07T12:33:42.000Z,2.30
2019-04-07T12:36:39.823Z,1.90
2019-04-07T12:39:30.740Z,2.20
2019-04-07T12:42:14.633Z,3.53
2019-04-07T12:45:02.113Z,2.57
2019-04-07T12:47:49.325Z,1.97
2019-04-07T12:50:30.555Z,3.93
2019-04-07T12:53:18.606Z,2.20
2019-04-07T12:56:05.742Z,1.80
2019-04-07T12:58:53.348Z,1.67
2019-04-07T13:01:49.669Z,1.40
2019-04-07T13:04:37.190Z,1.63
2019-04-07T13:07:24.444Z,1.90
2019-04-07T13:10:13.078Z,2.27
2019-04-07T13:13:00.288Z,1.70
2019-04-07T13:15:45.553Z,3.77
2019-04-07T13:18:35.617Z,1.70
2019-04-07T13:21:29.968Z,1.60
2019-04-07T13:24:30.144Z,4.10
2019-04-07T13:27:04.713Z,2.60
2019-04-07T13:29:59.715Z,3.57
2019-04-07T13:32:43.593Z,1.93
2019-04-07T13:35:35.592Z,4.60
2019-04-07T13:38:22.317Z,3.90
2019-04-07T13:41:16.184Z,1.67
2019-04-07T13:44:07.151Z,1.80
2019-04-07T13:46:59.194Z,1.70
2019-04-07T13:50:02.399Z,2.60
2019-04-07T13:52:59.106Z,2.43
2019-04-07T13:55:47.608Z,2.70
2019-04-07T13:58:49.296Z,2.10
2019-04-07T14:01:45.129Z,1.70
2019-04-07T14:04:34.311Z,1.80
2019-04-07T14:07:21.008Z,2.73
2019-04-07T14:10:05.422Z,2.30
2019-04-07T14:12:49.110Z,2.67
2019-04-07T14:15:37.750Z,1.70
2019-04-07T14:18:29.468Z,2.23
2019-04-07T14:21:17.917Z,2.20
2019-04-07T14:24:04.783Z,2.00
2019-04-07T14:26:42.439Z,1.80
2019-04-07T14:29:31.614Z,2.20
2019-04-07T14:32:19.710Z,1.73
2019-04-07T14:35:27.014Z,2.77
2019-04-07T14:38:06.826Z,2.10
2019-04-07T14:40:52.558Z,4.23
2019-04-07T14:43:47.475Z,1.60
2019-04-07T14:46:36.047Z,1.67
2019-04-07T14:49:16.077Z,1.73
2019-04-07T14:52:05.736Z,2.13
2019-04-07T14:54:57.310Z,1.93
2019-04-07T14:57:57.305Z,1.73
2019-04-07T15:01:02.659Z,2.37
2019-04-07T15:03:30.719Z,3.90
2019-04-07T15:06:01.169Z,3.17
2019-04-07T15:08:40.955Z,5.17
2019-04-07T15:11:28.107Z,4.43
2019-04-07T15:14:00.359Z,4.17
2019-04-07T15:16:32.819Z,6.57
2019-04-07T15:19:03.157Z,2.03
2019-04-07T15:21:33.689Z,2.27
2019-04-07T15:24:06.196Z,4.00
2019-04-07T15:26:35.766Z,5.37
2019-04-07T15:29:08.978Z,2.03
2019-04-07T15:31:37.452Z,2.13
2019-04-07T15:34:10.738Z,2.23
2019-04-07T15:36:39.696Z,13.67
2019-04-07T15:39:10.978Z,6.40
2019-04-07T15:41:43.361Z,4.30
2019-04-07T15:44:15.282Z,2.93
2019-04-07T15:46:49.087Z,3.57
2019-04-07T15:49:17.073Z,2.20
2019-04-07T15:51:47.626Z,3.13
2019-04-07T15:54:22.327Z,3.40
2019-04-07T15:56:50.512Z,2.73
2019-04-07T15:59:20.591Z,2.40
2019-04-07T16:01:51.252Z,2.83
2019-04-07T16:04:27.862Z,2.57
2019-04-07T16:06:54.451Z,2.10
2019-04-07T16:09:36.095Z,2.10
2019-04-07T16:11:58.863Z,2.27
2019-04-07T16:14:32.063Z,3.43
2019-04-07T16:17:04.296Z,2.47
2019-04-07T16:19:40.160Z,4.13
2019-04-07T16:22:12.054Z,4.03
2019-04-07T16:24:39.645Z,2.67
2019-04-07T16:27:09.608Z,2.10
2019-04-07T16:29:40.984Z,5.37
2019-04-07T16:32:11.400Z,3.33
2019-04-07T16:34:43.401Z,5.17
2019-04-07T16:37:16.687Z,2.60
2019-04-07T16:39:46.921Z,3.20
2019-04-07T16:42:17.378Z,3.20
2019-04-07T16:44:48.307Z,3.10
2019-04-07T16:47:23.233Z,2.30
2019-04-07T16:49:50.997Z,2.73
2019-04-07T16:52:20.893Z,3.53
2019-04-07T16:54:51.546Z,3.77
2019-04-07T16:57:27.002Z,3.10
2019-04-07T16:59:54.201Z,6.10
2019-04-07T17:02:25.120Z,3.37
2019-04-07T17:04:55.872Z,2.87
2019-04-07T17:07:26.239Z,4.30
2019-04-07T17:09:57.821Z,3.40
2019-04-07T17:12:31.301Z,3.40
2019-04-07T17:15:04.570Z,5.50
2019-04-07T17:17:33.845Z,3.33
2019-04-07T17:20:06.891Z,7.13
2019-04-07T17:22:37.284Z,4.93
2019-04-07T17:25:09.484Z,3.63
2019-04-07T17:27:42.241Z,5.00
2019-04-07T17:30:13.610Z,3.87
2019-04-07T17:32:45.735Z,4.40
2019-04-07T17:35:17.557Z,5.17
2019-04-07T17:37:47.605Z,4.30
2019-04-07T17:40:19.023Z,4.03
2019-04-07T17:42:52.686Z,6.00
2019-04-07T17:45:58.319Z,5.23
2019-04-07T17:48:58.683Z,3.80
2019-04-07T17:51:47.769Z,5.73
2019-04-07T17:54:32.617Z,4.00
2019-04-07T17:57:18.486Z,4.00
2019-04-07T18:00:18.575Z,4.17
2019-04-07T18:03:09.871Z,4.10
2019-04-07T18:05:49.750Z,9.43
2019-04-07T18:08:43.357Z,4.90
2019-04-07T18:11:35.847Z,11.50
2019-04-07T18:14:34.049Z,6.50
2019-04-07T18:17:37.933Z,4.30
2019-04-07T18:20:29.662Z,4.33
2019-04-07T18:23:24.058Z,4.20
2019-04-07T18:26:14.320Z,3.90
2019-04-07T18:28:52.067Z,6.13
2019-04-07T18:31:27.450Z,4.67
2019-04-07T18:34:15.379Z,6.37
2019-04-07T18:36:56.221Z,4.60
2019-04-07T18:39:51.634Z,7.13
2019-04-07T18:42:27.275Z,5.13
2019-04-07T18:45:16.154Z,4.87
2019-04-07T18:48:11.329Z,4.77
2019-04-07T18:50:53.901Z,6.10
2019-04-07T18:53:49.121Z,4.60
2019-04-07T18:56:40.368Z,4.97
2019-04-07T18:59:31.394Z,4.50
2019-04-07T19:02:19.387Z,4.37
2019-04-07T19:04:58.948Z,5.60
2019-04-07T19:07:48.543Z,5.27
2019-04-07T19:10:36.712Z,6.17
2019-04-07T19:13:17.917Z,5.20
2019-04-07T19:16:06.213Z,4.30
2019-04-07T19:19:10.650Z,4.60
2019-04-07T19:22:20.823Z,7.37
2019-04-07T19:25:09.265Z,5.47
2019-04-07T19:28:09.495Z,4.63
2019-04-07T19:31:01.861Z,4.63
2019-04-07T19:34:01.157Z,7.03
2019-04-07T19:36:47.186Z,6.53
2019-04-07T19:39:35.573Z,4.80
2019-04-07T19:42:39.119Z,3.70
2019-04-07T19:45:26.016Z,4.63
2019-04-07T19:48:15.553Z,4.00
2019-04-07T19:51:17.993Z,4.20
2019-04-07T19:54:06.613Z,5.07
2019-04-07T19:57:01.221Z,3.70
2019-04-07T19:59:58.564Z,3.90
2019-04-07T20:02:45.991Z,3.93
2019-04-07T20:05:33.114Z,4.77
2019-04-07T20:08:20.525Z,4.30
2019-04-07T20:11:12.487Z,5.47
2019-04-07T20:14:10.469Z,6.73
2019-04-07T20:16:53.902Z,6.77
2019-04-07T20:19:54.062Z,6.33
2019-04-07T20:22:45.243Z,7.00
2019-04-07T20:25:33.585Z,5.33
2019-04-07T20:28:32.475Z,6.27
2019-04-07T20:31:23.818Z,5.73
2019-04-07T20:34:06.345Z,6.10
2019-04-07T20:36:46.516Z,5.57
2019-04-07T20:39:37.927Z,6.47
2019-04-07T20:42:16.983Z,5.60
2019-04-07T20:45:13.168Z,5.67
2019-04-07T20:47:59.188Z,5.97
2019-04-07T20:50:42.302Z,5.17
2019-04-07T20:53:38.535Z,5.30
2019-04-07T20:56:27.104Z,6.00
2019-04-07T20:59:26.478Z,5.30
2019-04-07T21:02:29.359Z,5.27
2019-04-07T21:05:36.475Z,4.60
2019-04-07T21:08:19.946Z,5.27
2019-04-07T21:11:10.941Z,5.03
2019-04-07T21:13:59.490Z,4.53
2019-04-07T21:17:03.869Z,5.70
2019-04-07T21:19:51.885Z,5.50
2019-04-07T21:22:31.451Z,5.60
2019-04-07T21:25:19.508Z,6.10
2019-04-07T21:28:12.707Z,5.43
2019-04-07T21:31:06.916Z,5.53
2019-04-07T21:33:44.287Z,6.00
2019-04-07T21:36:28.665Z,9.90
2019-04-07T21:39:14.264Z,5.87
2019-04-07T21:41:58.382Z,8.30
2019-04-07T21:44:59.889Z,5.83
2019-04-07T21:47:40.050Z,5.30
2019-04-07T21:50:22.941Z,5.17
2019-04-07T21:53:10.090Z,6.90
2019-04-07T21:55:58.111Z,5.97
2019-04-07T21:58:56.920Z,5.33
2019-04-07T22:01:45.241Z,5.80
2019-04-07T22:04:43.678Z,7.17
2019-04-07T22:07:34.045Z,4.73
2019-04-07T22:10:05.457Z,5.17
2019-04-07T22:12:36.352Z,5.03
2019-04-07T22:15:11.669Z,5.07
2019-04-07T22:17:40.699Z,5.33
2019-04-07T22:20:10.982Z,5.93
2019-04-07T22:22:42.965Z,6.47
2019-04-07T22:25:14.129Z,5.23
2019-04-07T22:27:44.177Z,4.73
2019-04-07T22:30:14.435Z,4.23
2019-04-07T22:32:44.776Z,4.40
2019-04-07T22:35:14.778Z,5.57
2019-04-07T22:37:49.956Z,5.27
2019-04-07T22:40:19.829Z,4.70
2019-04-07T22:42:50.047Z,4.47
2019-04-07T22:45:25.124Z,4.40
2019-04-07T22:47:53.668Z,4.67
2019-04-07T22:50:25.301Z,4.30
2019-04-07T22:52:55.356Z,4.73
2019-04-07T22:55:27.030Z,4.27
2019-04-07T22:57:57.845Z,4.80
2019-04-07T23:00:28.776Z,5.60
2019-04-07T23:02:59.504Z,4.10
2019-04-07T23:05:30.491Z,4.03
2019-04-07T23:08:00.569Z,4.20
2019-04-07T23:10:32.218Z,3.70
2019-04-07T23:13:03.607Z,6.10
2019-04-07T23:15:41.604Z,3.10
2019-04-07T23:18:05.436Z,2.40
2019-04-07T23:20:35.531Z,2.73
2019-04-07T23:23:06.805Z,2.63
2019-04-07T23:25:36.855Z,2.50
2019-04-07T23:28:06.880Z,2.20
2019-04-07T23:30:37.263Z,2.03
2019-04-07T23:33:08.357Z,2.00
2019-04-07T23:35:39.316Z,1.93
2019-04-07T23:38:09.253Z,1.67
2019-04-07T23:40:40.557Z,2.77
2019-04-07T23:43:11.164Z,1.40
2019-04-07T23:45:41.988Z,2.13
2019-04-07T23:48:12.089Z,3.53
2019-04-07T23:50:42.338Z,1.90
2019-04-07T23:53:30.192Z,2.83
2019-04-07T23:56:01.713Z,1.57
2019-04-07T23:58:31.603Z,3.10
